createdAt,value
2022-11-05T00:00:02.807Z,0.18
2022-11-05T00:05:02.900Z,0.013000000000000001
2022-11-05T00:10:02.705Z,0
2022-11-05T00:15:02.725Z,0
2022-11-05T00:20:02.760Z,0
2022-11-05T00:25:02.798Z,0
2022-11-05T00:30:03.038Z,0
2022-11-05T00:35:02.899Z,0
2022-11-05T00:40:02.932Z,0.04
2022-11-05T00:45:02.823Z,0.006
2022-11-05T00:50:02.784Z,0.015
2022-11-05T00:55:02.786Z,0.188
2022-11-05T01:00:02.737Z,0.04
2022-11-05T01:05:03.017Z,0
2022-11-05T01:10:02.977Z,0
2022-11-05T01:15:02.923Z,0
2022-11-05T01:20:02.818Z,0
2022-11-05T01:25:02.849Z,0
2022-11-05T01:30:02.819Z,0
2022-11-05T01:35:02.891Z,0
2022-11-05T01:40:02.963Z,0
2022-11-05T01:45:03.066Z,0
2022-11-05T01:50:03.206Z,0
2022-11-05T01:55:02.861Z,0
2022-11-05T02:00:02.796Z,0
2022-11-05T02:05:02.868Z,0
2022-11-05T02:10:02.937Z,0
2022-11-05T02:15:03.012Z,0
2022-11-05T02:20:02.837Z,0
2022-11-05T02:25:02.910Z,0
2022-11-05T02:30:02.880Z,0
2022-11-05T02:35:03.015Z,0
2022-11-05T02:40:02.983Z,0
2022-11-05T02:45:02.978Z,0
2022-11-05T02:50:03.140Z,0
2022-11-05T02:55:02.949Z,0
2022-11-05T03:00:02.904Z,0
2022-11-05T03:05:02.908Z,0
2022-11-05T03:10:02.953Z,0.077
2022-11-05T03:15:03.084Z,0.169
2022-11-05T03:20:02.875Z,0.122
2022-11-05T03:25:02.920Z,0.12
2022-11-05T03:30:02.982Z,0.127
2022-11-05T03:35:02.903Z,0.13
2022-11-05T03:40:02.876Z,0.137
2022-11-05T03:45:03.011Z,0.145
2022-11-05T03:50:04.413Z,0.183
2022-11-05T03:55:02.899Z,0.169
2022-11-05T04:00:02.900Z,0.165
2022-11-05T04:05:03.038Z,0.116
2022-11-05T04:10:02.941Z,0.115
2022-11-05T04:15:03.169Z,0.115
2022-11-05T04:20:03.209Z,0.12
2022-11-05T04:25:02.985Z,0.123
2022-11-05T04:30:02.983Z,0.129
2022-11-05T04:35:03.067Z,0.171
2022-11-05T04:40:02.917Z,0.177
2022-11-05T04:45:02.969Z,0.181
2022-11-05T04:50:03.197Z,0
2022-11-05T04:55:03.184Z,0
2022-11-05T05:00:02.984Z,0
2022-11-05T05:05:03.011Z,0
2022-11-05T05:10:02.991Z,0.056
2022-11-05T05:15:03.017Z,0.11900000000000001
2022-11-05T05:20:03.091Z,0.162
2022-11-05T05:25:03.164Z,0.165
2022-11-05T05:30:03.147Z,0.167
2022-11-05T05:35:03.039Z,0.125
2022-11-05T05:40:03.068Z,0.121
2022-11-05T05:45:03.000Z,0.122
2022-11-05T05:50:03.030Z,0.129
2022-11-05T05:55:03.078Z,0.132
2022-11-05T06:00:03.132Z,0.139
2022-11-05T06:05:03.374Z,0.185
2022-11-05T06:10:03.016Z,0.182
2022-11-05T06:15:03.093Z,0.169
2022-11-05T06:20:03.125Z,0.134
2022-11-05T06:25:03.249Z,0.062
2022-11-05T06:30:03.325Z,0
2022-11-05T06:35:03.255Z,0.001
2022-11-05T06:40:03.244Z,5.037
2022-11-05T06:45:03.078Z,37.158
2022-11-05T06:50:03.106Z,39.282000000000004
2022-11-05T06:55:03.169Z,69.811
2022-11-05T07:00:07.432Z,93.319
2022-11-05T07:05:03.307Z,116.275
2022-11-05T07:10:03.244Z,168.555
2022-11-05T07:15:03.087Z,318.575
2022-11-05T07:20:03.169Z,593.984
2022-11-05T07:25:03.097Z,767.323
2022-11-05T07:30:03.090Z,517.739
2022-11-05T07:35:03.146Z,1134.8790000000001
2022-11-05T07:40:03.299Z,1181.112
2022-11-05T07:45:03.292Z,787.5550000000001
2022-11-05T07:50:03.236Z,411.173
2022-11-05T07:55:03.134Z,285.14300000000003
2022-11-05T08:00:03.189Z,372.194
2022-11-05T08:05:03.148Z,419.629
2022-11-05T08:10:03.489Z,406.931
2022-11-05T08:15:03.270Z,472.187
2022-11-05T08:20:03.354Z,985.176
2022-11-05T08:25:06.728Z,1112.979
2022-11-05T08:30:03.252Z,2982.273
2022-11-05T08:35:03.249Z,3746.527
2022-11-05T08:40:03.445Z,3354.192
2022-11-05T08:45:03.162Z,3304.456
2022-11-05T08:50:03.250Z,4139.562
2022-11-05T08:55:03.319Z,4236.687
2022-11-05T09:00:03.336Z,4359.52
2022-11-05T09:05:03.256Z,4469.662
2022-11-05T09:10:03.247Z,4557.555
2022-11-05T09:15:03.219Z,4668.3240000000005
2022-11-05T09:20:03.223Z,4738.08
2022-11-05T09:25:03.262Z,4901.5
2022-11-05T09:30:03.379Z,4962.935
2022-11-05T09:35:03.263Z,5082.24
2022-11-05T09:40:03.207Z,5178.0740000000005
2022-11-05T09:45:03.380Z,4782.828
2022-11-05T09:50:03.236Z,5206.876
2022-11-05T09:55:03.244Z,5427.188
2022-11-05T10:00:03.307Z,5161.174
2022-11-05T10:05:08.198Z,5472.85
2022-11-05T10:10:03.252Z,5593.707
2022-11-05T10:15:03.230Z,5296.408
2022-11-05T10:20:03.312Z,5700.26
2022-11-05T10:25:03.256Z,5698.032
2022-11-05T10:30:03.300Z,5734.696
2022-11-05T10:35:03.434Z,5865.222
2022-11-05T10:40:03.508Z,6021.47
2022-11-05T10:45:03.289Z,5953.019
2022-11-05T10:50:03.312Z,5966.446
2022-11-05T10:55:03.332Z,5874.808
2022-11-05T11:00:03.294Z,6082.894
2022-11-05T11:05:03.380Z,5214.184
2022-11-05T11:10:03.650Z,3365.446
2022-11-05T11:15:03.268Z,4027.862
2022-11-05T11:20:03.354Z,2969.096
2022-11-05T11:25:03.298Z,4215.787
2022-11-05T11:30:03.685Z,4782.3240000000005
2022-11-05T11:35:03.341Z,4853.321
2022-11-05T11:40:03.485Z,2815.476
2022-11-05T11:45:03.498Z,3984.896
2022-11-05T11:50:03.478Z,3580.079
2022-11-05T11:55:03.367Z,4152.305
2022-11-05T12:00:09.585Z,5025.677
2022-11-05T12:05:03.346Z,5198.164
2022-11-05T12:10:03.515Z,4424.157
2022-11-05T12:15:03.496Z,5107.61
2022-11-05T12:20:03.425Z,5728.942
2022-11-05T12:25:03.372Z,2295.783
2022-11-05T12:30:03.382Z,3017.154
2022-11-05T12:35:03.399Z,2358.611
2022-11-05T12:40:03.538Z,3680.873
2022-11-05T12:45:04.584Z,1130.933
2022-11-05T12:50:03.598Z,3245.8250000000003
2022-11-05T12:55:03.396Z,1487.422
2022-11-05T13:00:03.397Z,1606.433
2022-11-05T13:40:45.747Z,862.591
2022-11-05T13:45:03.472Z,708.764
2022-11-05T13:50:03.643Z,542.114
2022-11-05T13:55:03.623Z,596.38
2022-11-05T14:00:03.601Z,967.921
2022-11-05T14:05:05.231Z,720.288
2022-11-05T14:10:03.493Z,1144.083
2022-11-05T14:15:03.463Z,645.443
2022-11-05T14:20:03.633Z,331.093
2022-11-05T14:25:04.670Z,212.91400000000002
2022-11-05T14:30:03.811Z,176.984
2022-11-05T14:35:03.527Z,172.129
2022-11-05T14:40:03.797Z,127.175
2022-11-05T14:45:03.531Z,84.178
2022-11-05T14:50:03.520Z,56.845
2022-11-05T14:55:03.803Z,32.802
2022-11-05T15:00:03.579Z,37.045
2022-11-05T15:05:03.726Z,29.965
2022-11-05T15:10:09.007Z,23.928
2022-11-05T15:15:03.494Z,19.304000000000002
2022-11-05T15:20:03.948Z,0.129
2022-11-05T15:25:03.626Z,0.13
2022-11-05T15:30:03.601Z,0.133
2022-11-05T15:35:03.556Z,0.044
2022-11-05T15:40:03.755Z,0
2022-11-05T15:45:04.725Z,0.004
2022-11-05T15:50:03.625Z,0
2022-11-05T15:55:03.879Z,0
2022-11-05T16:00:03.637Z,0.167
2022-11-05T16:05:03.653Z,0.133
2022-11-05T16:10:06.137Z,0.133
2022-11-05T16:15:03.669Z,0.14400000000000002
2022-11-05T16:20:03.888Z,0.14300000000000002
2022-11-05T16:25:03.774Z,0.145
2022-11-05T16:30:03.595Z,0.153
2022-11-05T16:35:03.676Z,0.193
2022-11-05T16:40:03.895Z,0.191
2022-11-05T16:45:03.665Z,0.19
2022-11-05T16:50:03.833Z,0.157
2022-11-05T16:55:04.005Z,0.133
2022-11-05T17:00:04.778Z,0.131
2022-11-05T17:05:03.798Z,0.131
2022-11-05T17:10:03.593Z,0.13
2022-11-05T17:15:03.874Z,0.127
2022-11-05T17:20:03.612Z,0.147
2022-11-05T17:25:04.033Z,0.176
2022-11-05T17:30:04.350Z,0.177
2022-11-05T17:35:03.782Z,0.179
2022-11-05T17:40:03.858Z,0.04
2022-11-05T17:45:03.853Z,0
2022-11-05T17:50:03.682Z,0
2022-11-05T17:55:03.683Z,0
2022-11-05T18:00:03.662Z,0.075
2022-11-05T18:05:03.669Z,0.14400000000000002
2022-11-05T18:10:03.691Z,0.188
2022-11-05T18:15:04.101Z,0.196
2022-11-05T18:20:03.970Z,0.187
2022-11-05T18:25:03.878Z,0.14300000000000002
2022-11-05T18:30:03.956Z,0.14400000000000002
2022-11-05T18:35:03.678Z,0.14100000000000001
2022-11-05T18:40:03.766Z,0.14100000000000001
2022-11-05T18:45:03.785Z,0.14300000000000002
2022-11-05T18:50:03.788Z,0.154
2022-11-05T18:55:03.901Z,0.185
2022-11-05T19:00:03.878Z,0.181
2022-11-05T19:05:29.280Z,0.176
2022-11-05T19:10:03.882Z,0.13
2022-11-05T19:15:04.377Z,0.136
2022-11-05T19:20:01.913Z,0.14300000000000002
2022-11-05T19:25:01.427Z,0.14100000000000001
2022-11-05T19:30:01.490Z,0.14
2022-11-05T19:35:01.493Z,0.145
2022-11-05T19:40:01.604Z,0.17500000000000002
2022-11-05T19:45:16.974Z,0.17300000000000001
2022-11-05T19:50:01.563Z,0.17
2022-11-05T19:55:01.557Z,0.128
2022-11-05T20:00:01.458Z,0.13
2022-11-05T20:05:01.513Z,0.058
2022-11-05T20:10:01.509Z,0
2022-11-05T20:15:01.490Z,0
2022-11-05T20:20:01.510Z,0
2022-11-05T20:25:01.755Z,0.083
2022-11-05T20:30:03.444Z,0.19
2022-11-05T20:35:01.488Z,0.189
2022-11-05T20:40:01.594Z,0.148
2022-11-05T20:45:01.555Z,0.134
2022-11-05T20:50:01.459Z,0.246
2022-11-05T20:55:01.516Z,0.218
2022-11-05T21:00:01.536Z,0.614
2022-11-05T21:05:01.816Z,0.792
2022-11-05T21:10:01.744Z,0.708
2022-11-05T21:15:01.706Z,0.684
2022-11-05T21:20:01.560Z,0.669
2022-11-05T21:25:01.618Z,0.686
2022-11-05T21:30:01.562Z,0.867
2022-11-05T21:35:01.548Z,0.81
2022-11-05T21:40:01.650Z,0.811
2022-11-05T21:45:02.425Z,0.796
2022-11-05T21:50:01.767Z,0.738
2022-11-05T21:55:01.750Z,0.672
2022-11-05T22:00:01.985Z,0.738
2022-11-05T22:05:01.561Z,0.685
2022-11-05T22:10:01.692Z,0.603
2022-11-05T22:15:02.843Z,0.6910000000000001
2022-11-05T22:20:01.670Z,0.7030000000000001
2022-11-05T22:25:01.626Z,0.178
2022-11-05T22:30:01.867Z,0.028
2022-11-05T22:35:01.773Z,0.008
2022-11-05T22:40:01.682Z,0.006
2022-11-05T22:45:01.776Z,0.023
2022-11-05T22:50:01.609Z,0.026000000000000002
2022-11-05T22:55:01.654Z,0.063
2022-11-05T23:00:01.638Z,0.08600000000000001
2022-11-05T23:05:01.622Z,0.001
2022-11-05T23:10:01.853Z,0.116
2022-11-05T23:15:01.975Z,0.121
2022-11-05T23:20:01.660Z,0.001
2022-11-05T23:25:01.662Z,0.121
2022-11-05T23:30:01.658Z,0.17300000000000001
2022-11-05T23:35:01.693Z,0.037
2022-11-05T23:40:01.726Z,0.039
2022-11-05T23:45:01.980Z,0.129
2022-11-05T23:50:01.799Z,0.089
2022-11-05T23:55:01.718Z,0.02
